createdAt,value
2023-05-16T00:01:44.180Z,90.10
2023-05-16T00:04:11.980Z,90.10
2023-05-16T00:06:39.562Z,90.10
2023-05-16T00:09:07.341Z,90.00
2023-05-16T00:12:07.290Z,90.00
2023-05-16T00:14:36.696Z,89.90
2023-05-16T00:17:05.251Z,90.00
2023-05-16T00:19:33.203Z,90.00
2023-05-16T00:22:00.348Z,89.90
2023-05-16T00:24:27.807Z,89.90
2023-05-16T00:26:55.006Z,89.60
2023-05-16T00:29:24.695Z,89.60
2023-05-16T00:31:51.969Z,89.80
2023-05-16T00:34:21.712Z,89.80
2023-05-16T00:36:52.118Z,90.00
2023-05-16T00:39:19.320Z,90.00
2023-05-16T00:41:46.869Z,90.10
2023-05-16T00:44:14.030Z,89.90
2023-05-16T00:46:41.454Z,90.00
2023-05-16T00:49:09.377Z,89.90
2023-05-16T00:51:37.121Z,90.20
2023-05-16T00:54:04.530Z,89.80
2023-05-16T00:56:32.033Z,89.90
2023-05-16T00:58:59.375Z,89.80
2023-05-16T01:01:27.949Z,89.60
2023-05-16T01:03:55.728Z,89.40
2023-05-16T01:06:23.304Z,89.30
2023-05-16T01:08:51.236Z,89.30
2023-05-16T01:11:54.134Z,89.50
2023-05-16T01:14:34.403Z,89.40
2023-05-16T01:17:39.139Z,89.10
2023-05-16T01:20:24.775Z,89.30
2023-05-16T01:23:06.927Z,89.30
2023-05-16T01:25:52.771Z,89.30
2023-05-16T01:28:19.842Z,89.30
2023-05-16T01:30:47.023Z,89.40
2023-05-16T01:33:14.382Z,89.70
2023-05-16T01:35:46.834Z,89.70
2023-05-16T01:38:17.874Z,89.40
2023-05-16T01:40:45.006Z,89.20
2023-05-16T01:43:15.093Z,89.30
2023-05-16T01:45:48.222Z,89.70
2023-05-16T01:48:19.066Z,90.20
2023-05-16T01:50:50.246Z,90.10
2023-05-16T01:53:28.823Z,90.30
2023-05-16T01:56:00.687Z,90.30
2023-05-16T01:58:31.033Z,90.20
2023-05-16T02:01:05.204Z,90.00
2023-05-16T02:03:32.543Z,90.00
2023-05-16T02:05:59.932Z,90.20
2023-05-16T02:08:28.206Z,90.30
2023-05-16T02:10:55.609Z,90.40
2023-05-16T02:13:22.813Z,90.50
2023-05-16T02:15:50.062Z,90.40
2023-05-16T02:18:17.689Z,90.30
2023-05-16T02:20:44.900Z,90.40
2023-05-16T02:23:12.037Z,90.50
2023-05-16T02:25:40.713Z,90.60
2023-05-16T02:28:07.918Z,90.80
2023-05-16T02:30:35.157Z,90.90
2023-05-16T02:33:02.409Z,91.00
2023-05-16T02:35:29.685Z,91.10
2023-05-16T02:37:57.823Z,91.00
2023-05-16T02:40:25.154Z,90.90
2023-05-16T02:42:52.314Z,90.90
2023-05-16T02:45:19.451Z,90.80
2023-05-16T02:47:46.763Z,90.70
2023-05-16T02:50:14.086Z,90.80
2023-05-16T02:52:41.415Z,90.90
2023-05-16T02:55:21.639Z,90.90
2023-05-16T02:57:50.883Z,90.90
2023-05-16T03:00:18.919Z,90.70
2023-05-16T03:02:46.545Z,90.70
2023-05-16T03:05:14.159Z,90.70
2023-05-16T03:07:42.111Z,90.70
2023-05-16T03:10:09.670Z,90.70
2023-05-16T03:12:36.830Z,90.70
2023-05-16T03:15:04.391Z,90.70
2023-05-16T03:17:32.422Z,90.50
2023-05-16T03:19:59.673Z,90.60
2023-05-16T03:22:26.774Z,90.80
2023-05-16T03:24:53.825Z,91.00
2023-05-16T03:27:20.957Z,91.00
2023-05-16T03:29:48.206Z,91.00
2023-05-16T03:32:15.411Z,91.00
2023-05-16T03:34:42.475Z,90.90
2023-05-16T03:37:11.222Z,91.00
2023-05-16T03:39:38.455Z,90.90
2023-05-16T03:42:06.099Z,90.90
2023-05-16T03:44:33.319Z,90.80
2023-05-16T03:47:00.546Z,90.90
2023-05-16T03:49:30.314Z,90.90
2023-05-16T03:51:57.773Z,90.90
2023-05-16T03:54:24.833Z,91.00
2023-05-16T03:56:51.839Z,91.10
2023-05-16T03:59:18.961Z,91.20
2023-05-16T04:01:46.145Z,91.10
2023-05-16T04:04:14.622Z,90.80
2023-05-16T04:06:43.480Z,90.80
2023-05-16T04:09:10.577Z,90.70
2023-05-16T04:11:38.932Z,90.80
2023-05-16T04:14:06.075Z,90.80
2023-05-16T04:16:33.361Z,90.90
2023-05-16T04:19:00.660Z,90.90
2023-05-16T04:21:27.720Z,90.90
2023-05-16T04:23:54.781Z,90.70
2023-05-16T04:26:22.777Z,90.60
2023-05-16T04:28:49.921Z,90.60
2023-05-16T04:31:17.152Z,90.50
2023-05-16T04:33:44.190Z,90.50
2023-05-16T04:36:13.396Z,90.40
2023-05-16T04:38:40.659Z,90.40
2023-05-16T04:41:08.111Z,90.30
2023-05-16T04:43:35.782Z,90.30
2023-05-16T04:46:02.869Z,90.40
2023-05-16T04:48:31.101Z,90.30
2023-05-16T04:50:58.235Z,90.20
2023-05-16T04:53:25.342Z,90.20
2023-05-16T04:55:53.108Z,90.00
2023-05-16T04:58:20.336Z,89.20
2023-05-16T05:00:47.704Z,88.80
2023-05-16T05:03:14.905Z,88.70
2023-05-16T05:05:42.996Z,89.10
2023-05-16T05:08:10.207Z,89.20
2023-05-16T05:10:37.279Z,89.30
2023-05-16T05:13:04.552Z,89.00
2023-05-16T05:15:31.662Z,88.50
2023-05-16T05:17:59.078Z,88.20
2023-05-16T05:20:26.841Z,87.90
2023-05-16T05:23:01.647Z,88.40
2023-05-16T05:25:28.895Z,88.40
2023-05-16T05:27:56.060Z,88.10
2023-05-16T05:30:23.343Z,88.50
2023-05-16T05:32:50.459Z,88.80
2023-05-16T05:35:17.685Z,88.90
2023-05-16T05:37:44.756Z,89.00
2023-05-16T05:40:12.078Z,89.70
2023-05-16T05:42:39.432Z,90.10
2023-05-16T05:45:09.335Z,90.10
2023-05-16T05:47:36.489Z,90.10
2023-05-16T05:50:05.698Z,89.80
2023-05-16T05:52:32.737Z,89.50
2023-05-16T05:55:05.190Z,89.10
2023-05-16T05:57:34.710Z,88.80
2023-05-16T06:00:01.895Z,88.50
2023-05-16T06:02:29.490Z,88.50
2023-05-16T06:04:59.916Z,88.70
2023-05-16T06:07:47.093Z,88.80
2023-05-16T06:10:14.173Z,88.30
2023-05-16T06:12:41.501Z,89.10
2023-05-16T06:15:10.382Z,89.90
2023-05-16T06:17:37.434Z,90.40
2023-05-16T06:20:05.167Z,91.00
2023-05-16T06:22:32.420Z,91.50
2023-05-16T06:24:59.564Z,91.80
2023-05-16T06:27:26.840Z,92.00
2023-05-16T06:29:56.070Z,92.20
2023-05-16T06:32:23.188Z,92.40
2023-05-16T06:34:50.372Z,92.40
2023-05-16T06:37:17.857Z,92.00
2023-05-16T06:39:45.106Z,91.60
2023-05-16T06:42:13.489Z,91.60
2023-05-16T06:44:40.726Z,91.50
2023-05-16T06:47:08.304Z,91.70
2023-05-16T06:49:35.518Z,91.90
2023-05-16T06:52:02.856Z,92.00
2023-05-16T06:54:29.918Z,91.90
2023-05-16T06:56:57.616Z,91.80
2023-05-16T06:59:25.679Z,91.50
2023-05-16T07:01:55.121Z,91.10
2023-05-16T07:04:23.043Z,90.70
2023-05-16T07:06:50.350Z,90.00
2023-05-16T07:09:20.843Z,89.40
2023-05-16T07:11:47.978Z,88.50
2023-05-16T07:14:15.235Z,88.00
2023-05-16T07:16:43.499Z,87.20
2023-05-16T07:19:10.779Z,86.60
2023-05-16T07:21:38.210Z,85.60
2023-05-16T07:27:28.593Z,82.90
2023-05-16T07:29:55.981Z,84.20
2023-05-16T07:32:23.296Z,83.20
2023-05-16T07:34:50.701Z,83.90
2023-05-16T07:37:18.800Z,82.40
2023-05-16T07:43:16.308Z,80.30
2023-05-16T07:45:43.930Z,74.90
2023-05-16T07:48:11.547Z,74.30
2023-05-16T07:50:41.591Z,74.10
2023-05-16T07:53:08.676Z,73.10
2023-05-16T07:56:25.694Z,71.90
2023-05-16T07:59:13.592Z,72.80
2023-05-16T08:01:41.154Z,73.00
2023-05-16T08:04:08.613Z,72.30
2023-05-16T08:06:36.271Z,72.40
2023-05-16T08:09:03.966Z,72.40
2023-05-16T08:12:23.608Z,72.40
2023-05-16T08:14:50.895Z,71.50
2023-05-16T08:17:18.140Z,70.30
2023-05-16T08:19:45.630Z,70.30
2023-05-16T08:22:12.903Z,70.10
2023-05-16T08:28:16.154Z,68.30
2023-05-16T08:30:45.143Z,67.80
2023-05-16T08:33:13.759Z,67.70
2023-05-16T08:35:44.441Z,67.40
2023-05-16T08:38:11.923Z,69.90
2023-05-16T08:44:24.201Z,70.00
2023-05-16T08:46:55.667Z,69.90
2023-05-16T08:49:22.952Z,71.20
2023-05-16T08:51:51.734Z,71.60
2023-05-16T08:54:19.131Z,71.00
2023-05-16T09:00:20.479Z,68.40
2023-05-16T09:02:48.687Z,65.00
2023-05-16T09:05:17.230Z,65.40
2023-05-16T09:07:44.694Z,63.40
2023-05-16T09:10:12.273Z,65.10
2023-05-16T09:12:40.316Z,63.80
2023-05-16T09:15:08.359Z,65.00
2023-05-16T09:17:42.759Z,64.80
2023-05-16T09:20:11.600Z,62.40
2023-05-16T09:22:44.549Z,60.10
2023-05-16T09:25:28.633Z,59.70
2023-05-16T09:27:59.527Z,59.70
2023-05-16T09:31:19.466Z,59.70
2023-05-16T09:33:46.937Z,59.90
2023-05-16T09:36:15.332Z,58.70
2023-05-16T09:39:37.312Z,59.60
2023-05-16T09:42:16.692Z,59.90
2023-05-16T09:45:20.041Z,60.20
2023-05-16T09:47:52.775Z,59.70
2023-05-16T09:50:19.970Z,59.80
2023-05-16T09:52:47.350Z,58.80
2023-05-16T09:55:19.816Z,58.70
2023-05-16T09:57:47.073Z,57.80
2023-05-16T10:00:14.523Z,57.20
2023-05-16T10:02:41.794Z,57.60
2023-05-16T10:05:11.801Z,55.70
2023-05-16T10:07:38.981Z,55.30
2023-05-16T10:10:09.610Z,54.00
2023-05-16T10:16:17.568Z,55.10
2023-05-16T10:18:44.824Z,54.30
2023-05-16T10:21:14.960Z,55.10
2023-05-16T10:23:43.109Z,54.30
2023-05-16T10:26:10.655Z,54.70
2023-05-16T10:28:38.405Z,55.20
2023-05-16T10:31:05.868Z,54.20
2023-05-16T10:33:33.214Z,54.30
2023-05-16T10:36:00.630Z,54.20
2023-05-16T10:38:27.967Z,54.60
2023-05-16T10:40:58.148Z,54.60
2023-05-16T10:43:27.240Z,54.10
2023-05-16T10:45:59.283Z,54.80
2023-05-16T10:48:36.566Z,54.80
2023-05-16T10:51:04.366Z,56.10
2023-05-16T10:53:33.745Z,56.60
2023-05-16T10:56:04.006Z,57.00
2023-05-16T10:58:38.693Z,57.90
2023-05-16T11:01:29.502Z,58.80
2023-05-16T11:04:13.091Z,57.80
2023-05-16T11:06:43.037Z,58.80
2023-05-16T11:09:15.961Z,58.40
2023-05-16T11:11:52.809Z,58.90
2023-05-16T11:14:37.735Z,58.40
2023-05-16T11:17:16.085Z,57.80
2023-05-16T11:19:46.716Z,56.80
2023-05-16T11:22:20.062Z,55.40
2023-05-16T11:24:53.157Z,55.40
2023-05-16T11:27:30.061Z,55.70
2023-05-16T11:30:19.391Z,55.90
2023-05-16T11:32:47.213Z,55.20
2023-05-16T11:35:16.034Z,54.10
2023-05-16T11:37:44.111Z,53.40
2023-05-16T11:40:12.488Z,54.10
2023-05-16T11:42:49.664Z,51.30
2023-05-16T11:45:21.956Z,52.60
2023-05-16T11:47:49.410Z,52.70
2023-05-16T11:50:22.437Z,52.30
2023-05-16T11:52:56.694Z,53.30
2023-05-16T11:55:41.251Z,53.10
2023-05-16T11:58:09.664Z,52.60
2023-05-16T12:00:37.411Z,53.50
2023-05-16T12:03:06.239Z,53.50
2023-05-16T12:05:35.072Z,53.80
2023-05-16T12:08:05.065Z,54.10
2023-05-16T12:10:34.945Z,53.90
2023-05-16T12:13:02.493Z,52.80
2023-05-16T12:15:30.008Z,53.20
2023-05-16T12:17:57.413Z,52.90
2023-05-16T12:20:26.404Z,51.80
2023-05-16T12:22:54.483Z,51.00
2023-05-16T12:25:29.121Z,50.90
2023-05-16T12:27:58.932Z,52.00
2023-05-16T12:30:28.128Z,52.90
2023-05-16T12:33:05.834Z,53.10
2023-05-16T12:35:35.403Z,53.10
2023-05-16T12:38:08.163Z,52.60
2023-05-16T12:40:37.743Z,52.70
2023-05-16T12:43:05.300Z,53.90
2023-05-16T12:45:35.484Z,54.10
2023-05-16T12:48:07.168Z,54.70
2023-05-16T12:50:35.102Z,55.30
2023-05-16T12:53:02.472Z,54.00
2023-05-16T12:55:29.542Z,55.20
2023-05-16T12:58:02.867Z,55.00
2023-05-16T13:00:54.426Z,54.60
2023-05-16T13:03:22.945Z,52.70
2023-05-16T13:08:37.316Z,53.10
2023-05-16T13:11:04.282Z,52.80
2023-05-16T13:14:06.685Z,51.80
2023-05-16T13:16:34.222Z,52.40
2023-05-16T13:19:13.965Z,52.30
2023-05-16T13:21:53.134Z,51.80
2023-05-16T13:24:23.911Z,51.90
2023-05-16T13:27:00.228Z,51.80
2023-05-16T13:32:23.415Z,51.60
2023-05-16T13:34:53.122Z,51.60
2023-05-16T13:38:07.730Z,51.70
2023-05-16T13:40:44.602Z,52.40
2023-05-16T13:43:44.170Z,53.00
2023-05-16T13:46:12.137Z,54.70
2023-05-16T13:48:51.527Z,55.00
2023-05-16T13:51:20.317Z,50.00
2023-05-16T13:53:47.625Z,55.70
2023-05-16T13:56:31.032Z,71.00
2023-05-16T13:59:05.815Z,84.90
2023-05-16T14:01:37.398Z,91.90
2023-05-16T14:04:05.263Z,91.90
2023-05-16T14:06:35.191Z,92.20
2023-05-16T14:09:05.728Z,91.30
2023-05-16T14:11:38.132Z,90.90
2023-05-16T14:14:05.260Z,88.80
2023-05-16T14:16:33.710Z,89.50
2023-05-16T14:19:01.065Z,88.30
2023-05-16T14:21:31.752Z,89.50
2023-05-16T14:24:01.453Z,89.70
2023-05-16T14:26:28.894Z,83.40
2023-05-16T14:28:57.557Z,85.80
2023-05-16T14:31:25.405Z,87.10
2023-05-16T14:33:53.083Z,78.30
2023-05-16T14:39:10.922Z,81.00
2023-05-16T14:41:38.192Z,75.30
2023-05-16T14:44:06.119Z,71.80
2023-05-16T14:46:33.982Z,71.20
2023-05-16T14:49:01.307Z,74.30
2023-05-16T14:51:29.265Z,73.50
2023-05-16T14:53:56.603Z,75.70
2023-05-16T14:56:26.869Z,78.00
2023-05-16T14:58:54.490Z,78.90
2023-05-16T15:01:22.026Z,78.40
2023-05-16T15:03:55.269Z,76.00
2023-05-16T15:06:24.856Z,76.60
2023-05-16T15:08:52.336Z,76.80
2023-05-16T15:11:19.788Z,76.70
2023-05-16T15:13:46.938Z,74.70
2023-05-16T15:16:14.100Z,74.40
2023-05-16T15:18:41.921Z,74.80
2023-05-16T15:21:09.325Z,73.70
2023-05-16T15:23:36.852Z,72.00
2023-05-16T15:26:04.763Z,72.40
2023-05-16T15:28:32.000Z,71.80
2023-05-16T15:30:59.196Z,70.90
2023-05-16T15:33:26.482Z,72.10
2023-05-16T15:36:03.964Z,71.90
2023-05-16T15:38:31.320Z,69.90
2023-05-16T15:41:15.322Z,69.50
2023-05-16T15:43:46.540Z,68.00
2023-05-16T15:46:13.916Z,67.60
2023-05-16T15:48:45.121Z,69.40
2023-05-16T15:51:19.008Z,69.20
2023-05-16T15:53:46.179Z,67.40
2023-05-16T15:56:13.717Z,67.40
2023-05-16T15:58:41.154Z,69.00
2023-05-16T16:01:10.250Z,70.00
2023-05-16T16:03:38.398Z,70.30
2023-05-16T16:06:06.070Z,70.20
2023-05-16T16:08:33.538Z,69.50
2023-05-16T16:11:05.206Z,69.40
2023-05-16T16:13:32.800Z,67.50
2023-05-16T16:16:03.353Z,68.70
2023-05-16T16:18:30.913Z,69.30
2023-05-16T16:20:58.655Z,70.80
2023-05-16T16:23:26.216Z,70.80
2023-05-16T16:25:53.420Z,70.90
2023-05-16T16:28:22.608Z,70.90
2023-05-16T16:30:50.954Z,69.50
2023-05-16T16:33:18.607Z,69.70
2023-05-16T16:35:46.043Z,69.20
2023-05-16T16:38:13.718Z,67.90
2023-05-16T16:40:41.255Z,66.70
2023-05-16T16:43:08.506Z,66.50
2023-05-16T16:45:35.635Z,66.70
2023-05-16T16:48:03.180Z,68.30
2023-05-16T16:50:32.049Z,67.90
2023-05-16T16:53:02.008Z,67.50
2023-05-16T16:55:29.400Z,67.20
2023-05-16T16:57:56.882Z,67.60
2023-05-16T17:00:24.543Z,68.30
2023-05-16T17:02:52.028Z,68.60
2023-05-16T17:05:19.345Z,69.90
2023-05-16T17:07:46.516Z,70.30
2023-05-16T17:10:13.760Z,71.20
2023-05-16T17:12:47.028Z,70.50
2023-05-16T17:15:14.157Z,70.90
2023-05-16T17:17:41.329Z,72.20
2023-05-16T17:20:10.308Z,73.30
2023-05-16T17:22:37.688Z,73.70
2023-05-16T17:25:05.787Z,69.00
2023-05-16T17:27:33.051Z,70.30
2023-05-16T17:30:00.206Z,70.60
2023-05-16T17:32:27.727Z,70.80
2023-05-16T17:34:55.424Z,72.10
2023-05-16T17:37:22.648Z,72.50
2023-05-16T17:39:50.096Z,73.00
2023-05-16T17:42:17.349Z,73.90
2023-05-16T17:44:44.779Z,74.50
2023-05-16T17:47:15.273Z,73.60
2023-05-16T17:49:42.605Z,73.30
2023-05-16T17:52:09.905Z,73.20
2023-05-16T17:54:37.573Z,74.30
2023-05-16T17:57:07.297Z,75.60
2023-05-16T17:59:34.433Z,75.60
2023-05-16T18:02:01.501Z,76.60
2023-05-16T18:04:28.593Z,77.40
2023-05-16T18:06:56.416Z,78.00
2023-05-16T18:09:26.628Z,77.90
2023-05-16T18:11:53.922Z,78.00
2023-05-16T18:14:21.300Z,78.50
2023-05-16T18:16:48.577Z,78.70
2023-05-16T18:19:15.811Z,78.20
2023-05-16T18:21:45.481Z,77.00
2023-05-16T18:24:13.435Z,77.10
2023-05-16T18:26:40.852Z,77.30
2023-05-16T18:29:10.793Z,77.80
2023-05-16T18:31:41.459Z,77.50
2023-05-16T18:34:09.777Z,78.30
2023-05-16T18:36:37.155Z,77.80
2023-05-16T18:39:04.554Z,77.40
2023-05-16T18:41:31.718Z,79.00
2023-05-16T18:43:59.152Z,80.00
2023-05-16T18:46:26.534Z,80.80
2023-05-16T18:48:57.965Z,80.70
2023-05-16T18:51:25.527Z,81.00
2023-05-16T18:53:53.167Z,81.00
2023-05-16T18:56:22.088Z,81.10
2023-05-16T18:58:49.423Z,80.60
2023-05-16T19:01:16.650Z,80.10
2023-05-16T19:03:43.930Z,80.30
2023-05-16T19:06:11.807Z,80.80
2023-05-16T19:08:47.437Z,80.70
2023-05-16T19:11:15.240Z,80.50
2023-05-16T19:13:42.733Z,79.50
2023-05-16T19:16:10.748Z,80.10
2023-05-16T19:18:38.470Z,80.60
2023-05-16T19:21:07.932Z,81.40
2023-05-16T19:23:35.167Z,82.40
2023-05-16T19:26:03.020Z,82.80
2023-05-16T19:28:30.424Z,83.10
2023-05-16T19:30:57.936Z,83.20
2023-05-16T19:33:25.166Z,82.80
2023-05-16T19:35:53.861Z,82.00
2023-05-16T19:38:22.514Z,81.60
2023-05-16T19:40:49.774Z,81.00
2023-05-16T19:43:17.054Z,80.30
2023-05-16T19:45:44.517Z,80.80
2023-05-16T19:48:11.872Z,81.40
2023-05-16T19:50:39.105Z,82.20
2023-05-16T19:53:06.671Z,82.60
2023-05-16T19:55:35.185Z,82.50
2023-05-16T19:58:03.281Z,82.00
2023-05-16T20:00:31.010Z,82.00
2023-05-16T20:02:58.330Z,82.00
2023-05-16T20:05:26.192Z,81.40
2023-05-16T20:07:54.768Z,81.60
2023-05-16T20:10:22.288Z,81.90
2023-05-16T20:12:49.629Z,82.20
2023-05-16T20:15:16.928Z,82.70
2023-05-16T20:17:47.387Z,82.70
2023-05-16T20:20:14.597Z,82.60
2023-05-16T20:22:42.186Z,82.40
2023-05-16T20:25:10.114Z,82.40
2023-05-16T20:27:37.974Z,82.60
2023-05-16T20:30:06.979Z,82.60
2023-05-16T20:32:34.852Z,82.60
2023-05-16T20:35:05.053Z,82.10
2023-05-16T20:37:32.471Z,82.00
2023-05-16T20:39:59.739Z,81.80
2023-05-16T20:42:27.131Z,81.60
2023-05-16T20:44:54.443Z,81.50
2023-05-16T20:47:24.121Z,81.50
2023-05-16T20:49:51.329Z,82.10
2023-05-16T20:52:19.906Z,82.20
2023-05-16T20:54:49.234Z,82.30
2023-05-16T20:57:16.690Z,82.20
2023-05-16T20:59:44.450Z,82.00
2023-05-16T21:02:12.602Z,81.90
2023-05-16T21:04:40.120Z,81.80
2023-05-16T21:07:11.568Z,81.70
2023-05-16T21:09:41.592Z,81.80
2023-05-16T21:12:09.026Z,82.00
2023-05-16T21:14:36.998Z,81.70
2023-05-16T21:17:04.300Z,81.50
2023-05-16T21:19:35.095Z,81.20
2023-05-16T21:22:04.472Z,81.50
2023-05-16T21:24:35.792Z,81.80
2023-05-16T21:27:03.975Z,82.20
2023-05-16T21:29:32.699Z,82.80
2023-05-16T21:32:05.841Z,83.00
2023-05-16T21:34:34.801Z,82.60
2023-05-16T21:37:02.321Z,82.40
2023-05-16T21:39:29.607Z,82.40
2023-05-16T21:41:56.947Z,82.50
2023-05-16T21:44:25.395Z,82.20
2023-05-16T21:46:54.323Z,82.40
2023-05-16T21:49:21.517Z,82.20
2023-05-16T21:51:54.069Z,82.20
2023-05-16T21:54:21.567Z,82.20
2023-05-16T21:56:48.916Z,81.90
2023-05-16T21:59:16.075Z,81.80
2023-05-16T22:01:45.704Z,81.70
2023-05-16T22:04:13.152Z,81.80
2023-05-16T22:06:43.953Z,81.80
2023-05-16T22:09:12.199Z,82.00
2023-05-16T22:11:40.450Z,82.30
2023-05-16T22:14:07.703Z,82.80
2023-05-16T22:16:34.843Z,82.20
2023-05-16T22:19:03.522Z,82.40
2023-05-16T22:21:31.393Z,82.50
2023-05-16T22:24:00.920Z,82.30
2023-05-16T22:26:35.443Z,83.00
2023-05-16T22:29:04.992Z,83.00
2023-05-16T22:31:32.657Z,82.60
2023-05-16T22:33:59.893Z,82.60
2023-05-16T22:36:27.125Z,82.20
2023-05-16T22:38:54.637Z,82.60
2023-05-16T22:41:21.775Z,82.80
2023-05-16T22:43:49.079Z,82.40
2023-05-16T22:46:16.272Z,82.40
2023-05-16T22:48:43.542Z,82.60
2023-05-16T22:51:10.676Z,82.50
2023-05-16T22:53:37.897Z,82.40
2023-05-16T22:56:05.610Z,82.50
2023-05-16T22:58:32.905Z,82.80
2023-05-16T23:01:01.485Z,82.10
2023-05-16T23:03:31.821Z,82.00
2023-05-16T23:05:59.088Z,82.40
2023-05-16T23:08:26.341Z,82.20
2023-05-16T23:10:53.561Z,81.80
2023-05-16T23:13:20.861Z,81.60
2023-05-16T23:15:47.957Z,81.80
2023-05-16T23:18:15.337Z,81.90
2023-05-16T23:20:42.401Z,81.40
2023-05-16T23:23:09.606Z,81.20
2023-05-16T23:25:36.919Z,81.10
2023-05-16T23:28:04.113Z,81.30
2023-05-16T23:30:31.652Z,81.20
2023-05-16T23:33:04.589Z,81.60
2023-05-16T23:35:32.119Z,81.60
2023-05-16T23:38:00.312Z,81.60
2023-05-16T23:40:28.278Z,81.60
2023-05-16T23:42:55.572Z,81.70
2023-05-16T23:45:22.843Z,81.40
2023-05-16T23:47:50.199Z,81.50
2023-05-16T23:50:17.670Z,81.60
2023-05-16T23:52:44.774Z,82.10
2023-05-16T23:55:11.883Z,82.50
2023-05-16T23:57:41.218Z,82.60
